首页
METAR-TAF:

METAR-TAF

机场 :

阿巴丹, 伊朗

纬度: 30-22N, 经度: 048-15E, 海拔: 3米

当前天气观测

该预报发布于39分钟前的06:00 UTC
风速6节,风向西
温度 20°C
湿度 73%
气压 1020 hPa
能見度: 6000
散云层高于4000英尺

METAR: OIAA 180600Z 28006KT 6000 SCT040 20/15 Q1020

时间: 10:09 (06:39 UTC)

预报

该预报发布于1小时和9分钟前的05:30 UTC
预报有效从18日的 06点(UTC)到 19日的 12点(UTC)
风速8节,风向东转东南
能見度: 7000
少量云层高于4000英尺
多云层高于10000英尺
短暂存在
从 18日的 06点(UTC)到 18日的 16点(UTC)
少量云层高于3000英尺, 积雨云.
散云层高于3500英尺
多云层高于9000英尺
几率 30%
在之间 RA和点(UTC)
短暂存在
从 18日的 18点(UTC)到 18日的 24点(UTC)
能見度: 4000
浮尘
成为
从 19日的 00点(UTC)到 19日的 02点(UTC)
散云层高于3000英尺
多云层高于10000英尺
成为
从 19日的 06点(UTC)到 19日的 08点(UTC)
少量云层高于3000英尺, 积雨云.
散云层高于3500英尺
阴天层高于10000英尺
成为
从 19日的 10点(UTC)到 19日的 12点(UTC)
能見度: 4000
阵雨

TAF: OIAA 180530Z 1806/1912 12008KT 7000 FEW040 BKN100 TEMPO 1806/1816 FEW030CB SCT035 BKN090 PROB30 RA TEMPO 1818/1824 4000 DU BECMG 1900/1902 SCT030 BKN100 BECMG 1906/1908 FEW030CB SCT035 OVC100 BECMG 1910/1912 4000 SHRA

超过4000个机场的气象观测和天气预报(METAR&TAF报告)。

可查询的气象台以黄色和红色小点在地图上表示。

将鼠标移到小点上方,可查看气象台名称。

然后点击查看天气观测和预报。

如需切换地图:点击带黑十字的绿色按钮放大地图;点击带横线的绿色按钮缩小地图;或者点击绿色箭头查看邻近地区的地图。


METAR-TAF: